sensor_id;sensor_type;location;lat;lon;timestamp;P1;durP1;ratioP1;P2;durP2;ratioP2
32639;SDS011;19049;52.524;11.468;2022-08-04T00:05:10;2.83;;;2.40;;
32639;SDS011;19049;52.524;11.468;2022-08-04T00:10:53;2.50;;;2.30;;
32639;SDS011;19049;52.524;11.468;2022-08-04T00:13:30;2.23;;;2.13;;
32639;SDS011;19049;52.524;11.468;2022-08-04T00:16:57;2.53;;;2.33;;
32639;SDS011;19049;52.524;11.468;2022-08-04T00:19:28;2.67;;;2.47;;
32639;SDS011;19049;52.524;11.468;2022-08-04T00:22:10;2.70;;;2.50;;
32639;SDS011;19049;52.524;11.468;2022-08-04T00:25:04;3.73;;;2.70;;
32639;SDS011;19049;52.524;11.468;2022-08-04T00:28:19;2.40;;;2.20;;
32639;SDS011;19049;52.524;11.468;2022-08-04T00:31:29;2.27;;;2.07;;
32639;SDS011;19049;52.524;11.468;2022-08-04T00:34:03;2.53;;;2.33;;
32639;SDS011;19049;52.524;11.468;2022-08-04T00:36:38;2.70;;;2.50;;
32639;SDS011;19049;52.524;11.468;2022-08-04T00:39:15;2.63;;;2.43;;
32639;SDS011;19049;52.524;11.468;2022-08-04T00:54:30;4.53;;;2.90;;
32639;SDS011;19049;52.524;11.468;2022-08-04T01:07:22;2.70;;;2.50;;
32639;SDS011;19049;52.524;11.468;2022-08-04T01:15:52;3.10;;;2.77;;
32639;SDS011;19049;52.524;11.468;2022-08-04T01:18:32;3.03;;;2.83;;
32639;SDS011;19049;52.524;11.468;2022-08-04T01:26:42;2.93;;;2.73;;
32639;SDS011;19049;52.524;11.468;2022-08-04T01:29:48;3.17;;;2.60;;
32639;SDS011;19049;52.524;11.468;2022-08-04T01:32:35;2.33;;;2.17;;
32639;SDS011;19049;52.524;11.468;2022-08-04T01:35:23;2.60;;;2.40;;
32639;SDS011;19049;52.524;11.468;2022-08-04T01:47:13;3.50;;;2.30;;
32639;SDS011;19049;52.524;11.468;2022-08-04T01:50:19;3.90;;;2.50;;
32639;SDS011;19049;52.524;11.468;2022-08-04T01:56:44;2.50;;;2.30;;
32639;SDS011;19049;52.524;11.468;2022-08-04T02:00:01;3.73;;;2.47;;
32639;SDS011;19049;52.524;11.468;2022-08-04T02:02:50;2.47;;;2.27;;
32639;SDS011;19049;52.524;11.468;2022-08-04T02:05:27;3.07;;;2.80;;
32639;SDS011;19049;52.524;11.468;2022-08-04T02:14:29;2.33;;;2.17;;
32639;SDS011;19049;52.524;11.468;2022-08-04T02:20:45;3.00;;;2.80;;
32639;SDS011;19049;52.524;11.468;2022-08-04T02:23:28;2.87;;;2.67;;
32639;SDS011;19049;52.524;11.468;2022-08-04T02:35:28;2.97;;;2.47;;
32639;SDS011;19049;52.524;11.468;2022-08-04T02:41:44;2.90;;;2.70;;
32639;SDS011;19049;52.524;11.468;2022-08-04T02:47:57;2.90;;;2.70;;
32639;SDS011;19049;52.524;11.468;2022-08-04T02:57:36;2.70;;;2.50;;
32639;SDS011;19049;52.524;11.468;2022-08-04T03:00:31;2.70;;;2.50;;
32639;SDS011;19049;52.524;11.468;2022-08-04T03:29:38;2.80;;;2.60;;
32639;SDS011;19049;52.524;11.468;2022-08-04T03:32:22;2.73;;;2.53;;
32639;SDS011;19049;52.524;11.468;2022-08-04T03:46:38;2.90;;;2.70;;
32639;SDS011;19049;52.524;11.468;2022-08-04T04:12:51;3.17;;;2.97;;
32639;SDS011;19049;52.524;11.468;2022-08-04T04:15:46;3.03;;;2.83;;
32639;SDS011;19049;52.524;11.468;2022-08-04T04:31:44;3.10;;;2.90;;
32639;SDS011;19049;52.524;11.468;2022-08-04T04:37:11;4.33;;;2.80;;
32639;SDS011;19049;52.524;11.468;2022-08-04T04:45:52;3.13;;;2.83;;
32639;SDS011;19049;52.524;11.468;2022-08-04T04:55:21;3.27;;;3.07;;
32639;SDS011;19049;52.524;11.468;2022-08-04T04:58:15;3.77;;;3.47;;
32639;SDS011;19049;52.524;11.468;2022-08-04T05:13:23;3.63;;;3.33;;
32639;SDS011;19049;52.524;11.468;2022-08-04T05:23:12;3.20;;;3.00;;
32639;SDS011;19049;52.524;11.468;2022-08-04T05:29:33;3.90;;;3.60;;
32639;SDS011;19049;52.524;11.468;2022-08-04T05:32:42;3.37;;;3.10;;
32639;SDS011;19049;52.524;11.468;2022-08-04T05:35:31;3.80;;;3.43;;
32639;SDS011;19049;52.524;11.468;2022-08-04T05:38:28;3.73;;;3.43;;
32639;SDS011;19049;52.524;11.468;2022-08-04T05:55:07;3.77;;;3.47;;
32639;SDS011;19049;52.524;11.468;2022-08-04T05:58:08;3.87;;;3.57;;
32639;SDS011;19049;52.524;11.468;2022-08-04T06:07:44;3.53;;;3.23;;
32639;SDS011;19049;52.524;11.468;2022-08-04T06:10:53;4.50;;;3.20;;
32639;SDS011;19049;52.524;11.468;2022-08-04T06:17:19;5.40;;;3.03;;
32639;SDS011;19049;52.524;11.468;2022-08-04T06:20:29;3.37;;;3.07;;
32639;SDS011;19049;52.524;11.468;2022-08-04T06:33:30;2.70;;;2.50;;
32639;SDS011;19049;52.524;11.468;2022-08-04T06:36:32;3.07;;;2.53;;
32639;SDS011;19049;52.524;11.468;2022-08-04T06:42:41;2.23;;;2.13;;
32639;SDS011;19049;52.524;11.468;2022-08-04T06:45:09;2.60;;;2.40;;
32639;SDS011;19049;52.524;11.468;2022-08-04T06:47:57;2.47;;;2.27;;
32639;SDS011;19049;52.524;11.468;2022-08-04T07:00:11;2.67;;;2.30;;
32639;SDS011;19049;52.524;11.468;2022-08-04T07:03:18;2.53;;;2.03;;
32639;SDS011;19049;52.524;11.468;2022-08-04T07:13:12;1.83;;;1.73;;
32639;SDS011;19049;52.524;11.468;2022-08-04T07:16:45;2.20;;;2.00;;
32639;SDS011;19049;52.524;11.468;2022-08-04T07:23:52;2.07;;;1.97;;
32639;SDS011;19049;52.524;11.468;2022-08-04T07:34:24;2.70;;;1.60;;
32639;SDS011;19049;52.524;11.468;2022-08-04T07:37:13;2.53;;;2.07;;
32639;SDS011;19049;52.524;11.468;2022-08-04T07:43:31;2.03;;;1.70;;
32639;SDS011;19049;52.524;11.468;2022-08-04T07:58:23;2.20;;;2.00;;
32639;SDS011;19049;52.524;11.468;2022-08-04T08:01:17;2.43;;;2.23;;
32639;SDS011;19049;52.524;11.468;2022-08-04T08:04:36;2.97;;;2.10;;
32639;SDS011;19049;52.524;11.468;2022-08-04T08:07:46;2.43;;;1.63;;
32639;SDS011;19049;52.524;11.468;2022-08-04T08:20:12;1.95;;;1.85;;
32639;SDS011;19049;52.524;11.468;2022-08-04T08:26:18;1.70;;;1.60;;
32639;SDS011;19049;52.524;11.468;2022-08-04T08:28:52;1.80;;;1.70;;
32639;SDS011;19049;52.524;11.468;2022-08-04T08:34:22;1.70;;;1.60;;
32639;SDS011;19049;52.524;11.468;2022-08-04T08:37:03;1.83;;;1.73;;
32639;SDS011;19049;52.524;11.468;2022-08-04T08:39:48;2.63;;;2.10;;
32639;SDS011;19049;52.524;11.468;2022-08-04T08:42:45;1.70;;;1.60;;
32639;SDS011;19049;52.524;11.468;2022-08-04T08:45:40;1.50;;;1.40;;
32639;SDS011;19049;52.524;11.468;2022-08-04T08:54:23;2.00;;;1.90;;
32639;SDS011;19049;52.524;11.468;2022-08-04T08:57:09;1.80;;;1.70;;
32639;SDS011;19049;52.524;11.468;2022-08-04T09:16:10;2.40;;;1.95;;
32639;SDS011;19049;52.524;11.468;2022-08-04T09:21:53;2.15;;;1.75;;
32639;SDS011;19049;52.524;11.468;2022-08-04T09:24:47;1.92;;;1.83;;
32639;SDS011;19049;52.524;11.468;2022-08-04T09:46:21;2.40;;;2.30;;
32639;SDS011;19049;52.524;11.468;2022-08-04T09:48:53;1.92;;;1.83;;
32639;SDS011;19049;52.524;11.468;2022-08-04T09:57:16;1.90;;;1.80;;
32639;SDS011;19049;52.524;11.468;2022-08-04T10:00:02;2.00;;;1.90;;
32639;SDS011;19049;52.524;11.468;2022-08-04T10:02:38;2.05;;;1.95;;
32639;SDS011;19049;52.524;11.468;2022-08-04T10:05:19;2.35;;;2.15;;
32639;SDS011;19049;52.524;11.468;2022-08-04T10:07:51;2.10;;;2.00;;
32639;SDS011;19049;52.524;11.468;2022-08-04T10:13:42;3.20;;;2.17;;
32639;SDS011;19049;52.524;11.468;2022-08-04T10:17:00;2.28;;;2.17;;
32639;SDS011;19049;52.524;11.468;2022-08-04T10:19:35;2.28;;;2.17;;
32639;SDS011;19049;52.524;11.468;2022-08-04T10:27:33;2.22;;;2.13;;
32639;SDS011;19049;52.524;11.468;2022-08-04T10:30:06;2.70;;;2.33;;
32639;SDS011;19049;52.524;11.468;2022-08-04T10:32:41;2.28;;;2.17;;
32639;SDS011;19049;52.524;11.468;2022-08-04T10:46:40;2.40;;;2.30;;
32639;SDS011;19049;52.524;11.468;2022-08-04T10:49:21;2.20;;;2.10;;
32639;SDS011;19049;52.524;11.468;2022-08-04T10:57:04;2.20;;;2.10;;
32639;SDS011;19049;52.524;11.468;2022-08-04T11:02:32;2.97;;;1.80;;
32639;SDS011;19049;52.524;11.468;2022-08-04T11:08:21;3.47;;;2.13;;
32639;SDS011;19049;52.524;11.468;2022-08-04T11:11:00;2.30;;;2.10;;
32639;SDS011;19049;52.524;11.468;2022-08-04T11:13:58;2.30;;;2.10;;
32639;SDS011;19049;52.524;11.468;2022-08-04T11:19:27;2.40;;;2.30;;
32639;SDS011;19049;52.524;11.468;2022-08-04T11:21:59;2.65;;;2.45;;
32639;SDS011;19049;52.524;11.468;2022-08-04T11:27:51;2.10;;;2.00;;
32639;SDS011;19049;52.524;11.468;2022-08-04T11:30:23;2.33;;;2.22;;
32639;SDS011;19049;52.524;11.468;2022-08-04T11:33:04;2.28;;;2.17;;
32639;SDS011;19049;52.524;11.468;2022-08-04T11:35:33;2.20;;;2.10;;
32639;SDS011;19049;52.524;11.468;2022-08-04T11:38:11;2.47;;;2.22;;
32639;SDS011;19049;52.524;11.468;2022-08-04T11:40:44;2.45;;;2.35;;
32639;SDS011;19049;52.524;11.468;2022-08-04T11:43:34;2.90;;;2.63;;
32639;SDS011;19049;52.524;11.468;2022-08-04T11:46:07;2.63;;;2.53;;
32639;SDS011;19049;52.524;11.468;2022-08-04T11:48:41;3.17;;;2.40;;
32639;SDS011;19049;52.524;11.468;2022-08-04T11:51:16;2.47;;;2.38;;
32639;SDS011;19049;52.524;11.468;2022-08-04T11:53:46;2.30;;;2.20;;
32639;SDS011;19049;52.524;11.468;2022-08-04T11:56:17;3.00;;;2.80;;
32639;SDS011;19049;52.524;11.468;2022-08-04T12:10:06;2.65;;;2.45;;
32639;SDS011;19049;52.524;11.468;2022-08-04T12:12:56;2.67;;;2.47;;
32639;SDS011;19049;52.524;11.468;2022-08-04T12:18:18;2.70;;;2.53;;
32639;SDS011;19049;52.524;11.468;2022-08-04T12:21:02;2.60;;;2.50;;
32639;SDS011;19049;52.524;11.468;2022-08-04T12:23:39;2.50;;;2.30;;
32639;SDS011;19049;52.524;11.468;2022-08-04T12:26:14;3.38;;;2.70;;
32639;SDS011;19049;52.524;11.468;2022-08-04T12:29:00;3.60;;;3.13;;
32639;SDS011;19049;52.524;11.468;2022-08-04T12:31:30;2.50;;;2.40;;
32639;SDS011;19049;52.524;11.468;2022-08-04T12:37:10;3.70;;;2.75;;
32639;SDS011;19049;52.524;11.468;2022-08-04T12:39:58;4.63;;;2.50;;
32639;SDS011;19049;52.524;11.468;2022-08-04T12:43:41;2.65;;;2.45;;
32639;SDS011;19049;52.524;11.468;2022-08-04T12:45:49;2.65;;;2.45;;
32639;SDS011;19049;52.524;11.468;2022-08-04T12:48:20;2.47;;;2.38;;
32639;SDS011;19049;52.524;11.468;2022-08-04T12:50:47;2.42;;;2.22;;
32639;SDS011;19049;52.524;11.468;2022-08-04T12:53:19;3.63;;;2.33;;
32639;SDS011;19049;52.524;11.468;2022-08-04T12:55:58;2.53;;;2.38;;
32639;SDS011;19049;52.524;11.468;2022-08-04T12:58:31;2.30;;;2.20;;
32639;SDS011;19049;52.524;11.468;2022-08-04T13:01:12;3.20;;;2.30;;
32639;SDS011;19049;52.524;11.468;2022-08-04T13:04:02;2.20;;;2.10;;
32639;SDS011;19049;52.524;11.468;2022-08-04T13:06:39;3.05;;;2.42;;
32639;SDS011;19049;52.524;11.468;2022-08-04T13:09:07;2.80;;;2.60;;
32639;SDS011;19049;52.524;11.468;2022-08-04T13:11:43;3.10;;;2.45;;
32639;SDS011;19049;52.524;11.468;2022-08-04T13:14:15;2.50;;;2.40;;
32639;SDS011;19049;52.524;11.468;2022-08-04T13:16:57;2.27;;;2.17;;
32639;SDS011;19049;52.524;11.468;2022-08-04T13:19:29;2.40;;;2.30;;
32639;SDS011;19049;52.524;11.468;2022-08-04T13:21:55;3.03;;;2.17;;
32639;SDS011;19049;52.524;11.468;2022-08-04T13:24:24;2.65;;;2.45;;
32639;SDS011;19049;52.524;11.468;2022-08-04T13:26:58;2.60;;;2.50;;
32639;SDS011;19049;52.524;11.468;2022-08-04T13:29:38;2.58;;;2.42;;
32639;SDS011;19049;52.524;11.468;2022-08-04T13:32:19;2.40;;;2.20;;
32639;SDS011;19049;52.524;11.468;2022-08-04T13:34:48;2.30;;;2.20;;
32639;SDS011;19049;52.524;11.468;2022-08-04T13:37:17;2.60;;;2.40;;
32639;SDS011;19049;52.524;11.468;2022-08-04T13:39:53;6.75;;;2.30;;
32639;SDS011;19049;52.524;11.468;2022-08-04T13:42:23;2.35;;;2.25;;
32639;SDS011;19049;52.524;11.468;2022-08-04T13:44:52;3.88;;;2.33;;
32639;SDS011;19049;52.524;11.468;2022-08-04T13:47:30;3.03;;;2.83;;
32639;SDS011;19049;52.524;11.468;2022-08-04T13:52:51;2.50;;;2.33;;
32639;SDS011;19049;52.524;11.468;2022-08-04T13:55:26;2.90;;;2.72;;
32639;SDS011;19049;52.524;11.468;2022-08-04T13:57:55;2.95;;;2.63;;
32639;SDS011;19049;52.524;11.468;2022-08-04T14:00:24;2.70;;;2.55;;
32639;SDS011;19049;52.524;11.468;2022-08-04T14:03:02;2.88;;;2.67;;
32639;SDS011;19049;52.524;11.468;2022-08-04T14:05:31;2.60;;;2.42;;
32639;SDS011;19049;52.524;11.468;2022-08-04T14:14:31;2.70;;;2.28;;
32639;SDS011;19049;52.524;11.468;2022-08-04T14:17:08;4.82;;;2.35;;
32639;SDS011;19049;52.524;11.468;2022-08-04T14:27:21;2.80;;;2.60;;
32639;SDS011;19049;52.524;11.468;2022-08-04T14:29:59;2.38;;;2.28;;
32639;SDS011;19049;52.524;11.468;2022-08-04T14:32:30;2.70;;;2.60;;
32639;SDS011;19049;52.524;11.468;2022-08-04T14:34:58;2.20;;;2.05;;
32639;SDS011;19049;52.524;11.468;2022-08-04T14:37:34;2.45;;;2.35;;
32639;SDS011;19049;52.524;11.468;2022-08-04T14:40:00;2.47;;;2.38;;
32639;SDS011;19049;52.524;11.468;2022-08-04T14:42:41;3.67;;;2.60;;
32639;SDS011;19049;52.524;11.468;2022-08-04T14:45:10;2.20;;;2.10;;
32639;SDS011;19049;52.524;11.468;2022-08-04T14:47:40;2.33;;;2.13;;
32639;SDS011;19049;52.524;11.468;2022-08-04T14:50:10;2.35;;;2.25;;
32639;SDS011;19049;52.524;11.468;2022-08-04T14:52:39;2.60;;;2.40;;
32639;SDS011;19049;52.524;11.468;2022-08-04T14:55:18;2.95;;;2.55;;
32639;SDS011;19049;52.524;11.468;2022-08-04T14:57:49;3.15;;;2.95;;
32639;SDS011;19049;52.524;11.468;2022-08-04T15:00:24;3.20;;;3.00;;
32639;SDS011;19049;52.524;11.468;2022-08-04T15:02:57;3.42;;;3.13;;
32639;SDS011;19049;52.524;11.468;2022-08-04T15:05:32;2.80;;;2.70;;
32639;SDS011;19049;52.524;11.468;2022-08-04T15:07:58;2.60;;;2.50;;
32639;SDS011;19049;52.524;11.468;2022-08-04T15:10:24;2.80;;;2.70;;
32639;SDS011;19049;52.524;11.468;2022-08-04T15:12:56;2.70;;;2.60;;
32639;SDS011;19049;52.524;11.468;2022-08-04T15:15:22;3.45;;;3.25;;
32639;SDS011;19049;52.524;11.468;2022-08-04T15:17:51;3.88;;;3.53;;
32639;SDS011;19049;52.524;11.468;2022-08-04T15:20:17;3.55;;;3.28;;
32639;SDS011;19049;52.524;11.468;2022-08-04T15:22:43;3.45;;;3.25;;
32639;SDS011;19049;52.524;11.468;2022-08-04T15:25:09;3.05;;;2.85;;
32639;SDS011;19049;52.524;11.468;2022-08-04T15:27:35;2.50;;;2.40;;
32639;SDS011;19049;52.524;11.468;2022-08-04T15:30:04;2.72;;;2.63;;
32639;SDS011;19049;52.524;11.468;2022-08-04T15:32:39;3.25;;;2.70;;
32639;SDS011;19049;52.524;11.468;2022-08-04T15:35:26;5.15;;;2.53;;
32639;SDS011;19049;52.524;11.468;2022-08-04T15:38:03;2.30;;;2.20;;
32639;SDS011;19049;52.524;11.468;2022-08-04T15:46:01;2.90;;;2.70;;
32639;SDS011;19049;52.524;11.468;2022-08-04T15:48:29;3.35;;;3.15;;
32639;SDS011;19049;52.524;11.468;2022-08-04T15:50:59;3.25;;;3.05;;
32639;SDS011;19049;52.524;11.468;2022-08-04T15:54:19;2.40;;;2.15;;
32639;SDS011;19049;52.524;11.468;2022-08-04T15:58:49;3.55;;;2.80;;
32639;SDS011;19049;52.524;11.468;2022-08-04T16:01:16;2.70;;;2.50;;
32639;SDS011;19049;52.524;11.468;2022-08-04T16:03:44;2.55;;;2.42;;
32639;SDS011;19049;52.524;11.468;2022-08-04T16:21:55;3.85;;;2.53;;
32639;SDS011;19049;52.524;11.468;2022-08-04T16:26:55;2.38;;;2.17;;
32639;SDS011;19049;52.524;11.468;2022-08-04T16:29:27;2.15;;;1.95;;
32639;SDS011;19049;52.524;11.468;2022-08-04T16:37:04;2.50;;;2.30;;
32639;SDS011;19049;52.524;11.468;2022-08-04T16:39:34;1.97;;;1.87;;
32639;SDS011;19049;52.524;11.468;2022-08-04T16:42:19;2.60;;;2.07;;
32639;SDS011;19049;52.524;11.468;2022-08-04T16:50:18;4.03;;;1.80;;
32639;SDS011;19049;52.524;11.468;2022-08-04T16:52:46;3.00;;;1.60;;
32639;SDS011;19049;52.524;11.468;2022-08-04T16:55:15;1.73;;;1.63;;
32639;SDS011;19049;52.524;11.468;2022-08-04T16:57:49;2.40;;;2.10;;
32639;SDS011;19049;52.524;11.468;2022-08-04T17:00:33;5.40;;;2.97;;
32639;SDS011;19049;52.524;11.468;2022-08-04T17:03:01;2.73;;;2.30;;
32639;SDS011;19049;52.524;11.468;2022-08-04T17:05:31;2.47;;;2.27;;
32639;SDS011;19049;52.524;11.468;2022-08-04T17:07:58;3.70;;;2.00;;
32639;SDS011;19049;52.524;11.468;2022-08-04T17:10:36;3.13;;;2.00;;
32639;SDS011;19049;52.524;11.468;2022-08-04T17:13:19;4.50;;;2.67;;
32639;SDS011;19049;52.524;11.468;2022-08-04T17:15:55;3.50;;;2.60;;
32639;SDS011;19049;52.524;11.468;2022-08-04T17:18:29;3.50;;;3.20;;
32639;SDS011;19049;52.524;11.468;2022-08-04T17:21:00;2.80;;;2.60;;
32639;SDS011;19049;52.524;11.468;2022-08-04T17:23:36;3.47;;;2.67;;
32639;SDS011;19049;52.524;11.468;2022-08-04T17:26:25;2.80;;;2.10;;
32639;SDS011;19049;52.524;11.468;2022-08-04T17:28:59;2.53;;;2.07;;
32639;SDS011;19049;52.524;11.468;2022-08-04T17:31:26;9.93;;;2.70;;
32639;SDS011;19049;52.524;11.468;2022-08-04T17:34:12;4.07;;;2.33;;
32639;SDS011;19049;52.524;11.468;2022-08-04T17:36:45;2.47;;;2.27;;
32639;SDS011;19049;52.524;11.468;2022-08-04T17:39:12;5.00;;;2.77;;
32639;SDS011;19049;52.524;11.468;2022-08-04T17:41:44;3.43;;;2.70;;
32639;SDS011;19049;52.524;11.468;2022-08-04T17:44:13;2.27;;;2.07;;
32639;SDS011;19049;52.524;11.468;2022-08-04T17:46:39;4.30;;;2.67;;
32639;SDS011;19049;52.524;11.468;2022-08-04T17:51:48;2.13;;;1.93;;
32639;SDS011;19049;52.524;11.468;2022-08-04T17:57:12;2.47;;;2.27;;
32639;SDS011;19049;52.524;11.468;2022-08-04T17:59:49;4.60;;;2.23;;
32639;SDS011;19049;52.524;11.468;2022-08-04T18:02:22;2.00;;;1.90;;
32639;SDS011;19049;52.524;11.468;2022-08-04T18:04:56;2.03;;;1.93;;
32639;SDS011;19049;52.524;11.468;2022-08-04T18:07:23;2.07;;;1.87;;
32639;SDS011;19049;52.524;11.468;2022-08-04T18:09:59;2.13;;;2.00;;
32639;SDS011;19049;52.524;11.468;2022-08-04T18:14:55;2.30;;;1.90;;
32639;SDS011;19049;52.524;11.468;2022-08-04T18:17:35;2.10;;;2.00;;
32639;SDS011;19049;52.524;11.468;2022-08-04T18:20:18;4.10;;;1.80;;
32639;SDS011;19049;52.524;11.468;2022-08-04T18:22:47;2.53;;;1.70;;
32639;SDS011;19049;52.524;11.468;2022-08-04T18:25:15;2.43;;;1.97;;
32639;SDS011;19049;52.524;11.468;2022-08-04T18:27:55;1.90;;;1.70;;
32639;SDS011;19049;52.524;11.468;2022-08-04T18:30:22;1.80;;;1.70;;
32639;SDS011;19049;52.524;11.468;2022-08-04T18:32:56;2.07;;;1.87;;
32639;SDS011;19049;52.524;11.468;2022-08-04T18:35:22;2.27;;;1.80;;
32639;SDS011;19049;52.524;11.468;2022-08-04T18:37:48;1.67;;;1.57;;
32639;SDS011;19049;52.524;11.468;2022-08-04T18:40:34;1.70;;;1.60;;
32639;SDS011;19049;52.524;11.468;2022-08-04T18:43:10;1.67;;;1.57;;
32639;SDS011;19049;52.524;11.468;2022-08-04T18:45:35;2.67;;;1.60;;
32639;SDS011;19049;52.524;11.468;2022-08-04T18:48:03;1.53;;;1.43;;
32639;SDS011;19049;52.524;11.468;2022-08-04T18:50:34;1.50;;;1.40;;
32639;SDS011;19049;52.524;11.468;2022-08-04T18:53:02;2.33;;;1.30;;
32639;SDS011;19049;52.524;11.468;2022-08-04T18:55:28;1.50;;;1.40;;
32639;SDS011;19049;52.524;11.468;2022-08-04T18:57:55;1.30;;;1.20;;
32639;SDS011;19049;52.524;11.468;2022-08-04T19:00:21;1.60;;;1.50;;
32639;SDS011;19049;52.524;11.468;2022-08-04T19:02:46;2.53;;;1.30;;
32639;SDS011;19049;52.524;11.468;2022-08-04T19:05:12;1.30;;;1.20;;
32639;SDS011;19049;52.524;11.468;2022-08-04T19:07:38;1.70;;;1.60;;
32639;SDS011;19049;52.524;11.468;2022-08-04T19:10:03;1.57;;;1.47;;
32639;SDS011;19049;52.524;11.468;2022-08-04T19:12:30;1.97;;;1.73;;
32639;SDS011;19049;52.524;11.468;2022-08-04T19:15:00;2.00;;;1.77;;
32639;SDS011;19049;52.524;11.468;2022-08-04T19:17:26;4.43;;;1.90;;
32639;SDS011;19049;52.524;11.468;2022-08-04T19:19:52;2.10;;;1.90;;
32639;SDS011;19049;52.524;11.468;2022-08-04T19:22:20;2.53;;;2.13;;
32639;SDS011;19049;52.524;11.468;2022-08-04T19:25:06;2.13;;;1.90;;
32639;SDS011;19049;52.524;11.468;2022-08-04T19:27:32;2.20;;;2.00;;
32639;SDS011;19049;52.524;11.468;2022-08-04T19:29:58;2.20;;;2.00;;
32639;SDS011;19049;52.524;11.468;2022-08-04T19:32:26;11.83;;;2.70;;
32639;SDS011;19049;52.524;11.468;2022-08-04T19:34:52;4.27;;;2.80;;
32639;SDS011;19049;52.524;11.468;2022-08-04T19:37:18;2.20;;;2.00;;
32639;SDS011;19049;52.524;11.468;2022-08-04T19:39:44;2.67;;;2.10;;
32639;SDS011;19049;52.524;11.468;2022-08-04T19:42:24;2.40;;;2.20;;
32639;SDS011;19049;52.524;11.468;2022-08-04T19:44:49;2.53;;;1.80;;
32639;SDS011;19049;52.524;11.468;2022-08-04T19:47:17;4.47;;;1.90;;
32639;SDS011;19049;52.524;11.468;2022-08-04T19:49:43;3.73;;;2.03;;
32639;SDS011;19049;52.524;11.468;2022-08-04T19:52:09;2.80;;;2.17;;
32639;SDS011;19049;52.524;11.468;2022-08-04T19:54:36;2.40;;;2.20;;
32639;SDS011;19049;52.524;11.468;2022-08-04T19:57:03;3.60;;;2.37;;
32639;SDS011;19049;52.524;11.468;2022-08-04T19:59:29;4.13;;;2.40;;
32639;SDS011;19049;52.524;11.468;2022-08-04T20:01:54;2.90;;;1.90;;
32639;SDS011;19049;52.524;11.468;2022-08-04T20:04:20;3.13;;;2.30;;
32639;SDS011;19049;52.524;11.468;2022-08-04T20:06:45;3.63;;;1.83;;
32639;SDS011;19049;52.524;11.468;2022-08-04T20:09:11;1.93;;;1.80;;
32639;SDS011;19049;52.524;11.468;2022-08-04T20:11:44;2.73;;;1.67;;
32639;SDS011;19049;52.524;11.468;2022-08-04T20:14:11;2.30;;;2.00;;
32639;SDS011;19049;52.524;11.468;2022-08-04T20:16:43;3.17;;;1.73;;
32639;SDS011;19049;52.524;11.468;2022-08-04T20:19:16;2.77;;;2.03;;
32639;SDS011;19049;52.524;11.468;2022-08-04T20:21:42;2.37;;;1.90;;
32639;SDS011;19049;52.524;11.468;2022-08-04T20:24:07;2.93;;;1.67;;
32639;SDS011;19049;52.524;11.468;2022-08-04T20:26:33;1.90;;;1.80;;
32639;SDS011;19049;52.524;11.468;2022-08-04T20:29:10;3.33;;;2.03;;
32639;SDS011;19049;52.524;11.468;2022-08-04T20:31:38;2.20;;;2.00;;
32639;SDS011;19049;52.524;11.468;2022-08-04T20:34:04;2.27;;;2.07;;
32639;SDS011;19049;52.524;11.468;2022-08-04T20:36:29;1.70;;;1.60;;
32639;SDS011;19049;52.524;11.468;2022-08-04T20:38:55;2.00;;;1.50;;
32639;SDS011;19049;52.524;11.468;2022-08-04T20:41:23;3.10;;;1.30;;
32639;SDS011;19049;52.524;11.468;2022-08-04T20:43:49;2.53;;;1.53;;
32639;SDS011;19049;52.524;11.468;2022-08-04T20:46:14;1.60;;;1.50;;
32639;SDS011;19049;52.524;11.468;2022-08-04T20:48:40;2.60;;;1.40;;
32639;SDS011;19049;52.524;11.468;2022-08-04T20:51:06;1.40;;;1.30;;
32639;SDS011;19049;52.524;11.468;2022-08-04T20:53:31;1.70;;;1.50;;
32639;SDS011;19049;52.524;11.468;2022-08-04T20:55:57;1.40;;;1.30;;
32639;SDS011;19049;52.524;11.468;2022-08-04T20:58:25;3.03;;;1.20;;
32639;SDS011;19049;52.524;11.468;2022-08-04T21:00:51;1.60;;;1.33;;
32639;SDS011;19049;52.524;11.468;2022-08-04T21:03:16;1.50;;;1.40;;
32639;SDS011;19049;52.524;11.468;2022-08-04T21:05:42;2.40;;;1.27;;
32639;SDS011;19049;52.524;11.468;2022-08-04T21:08:10;3.20;;;1.70;;
32639;SDS011;19049;52.524;11.468;2022-08-04T21:10:36;1.80;;;1.40;;
32639;SDS011;19049;52.524;11.468;2022-08-04T21:13:04;1.87;;;1.60;;
32639;SDS011;19049;52.524;11.468;2022-08-04T21:15:30;1.93;;;1.30;;
32639;SDS011;19049;52.524;11.468;2022-08-04T21:18:00;1.93;;;1.27;;
32639;SDS011;19049;52.524;11.468;2022-08-04T21:20:28;3.77;;;1.33;;
32639;SDS011;19049;52.524;11.468;2022-08-04T21:22:54;1.30;;;1.20;;
32639;SDS011;19049;52.524;11.468;2022-08-04T21:25:22;1.80;;;1.43;;
32639;SDS011;19049;52.524;11.468;2022-08-04T21:27:48;2.13;;;1.40;;
32639;SDS011;19049;52.524;11.468;2022-08-04T21:30:14;1.67;;;1.50;;
32639;SDS011;19049;52.524;11.468;2022-08-04T21:32:39;1.37;;;1.27;;
32639;SDS011;19049;52.524;11.468;2022-08-04T21:35:12;1.37;;;1.27;;
32639;SDS011;19049;52.524;11.468;2022-08-04T21:37:38;1.70;;;1.40;;
32639;SDS011;19049;52.524;11.468;2022-08-04T21:40:11;3.67;;;1.60;;
32639;SDS011;19049;52.524;11.468;2022-08-04T21:42:36;1.57;;;1.47;;
32639;SDS011;19049;52.524;11.468;2022-08-04T21:45:02;2.20;;;2.00;;
32639;SDS011;19049;52.524;11.468;2022-08-04T21:47:28;2.00;;;1.70;;
32639;SDS011;19049;52.524;11.468;2022-08-04T21:49:56;1.53;;;1.43;;
32639;SDS011;19049;52.524;11.468;2022-08-04T21:52:22;1.57;;;1.47;;
32639;SDS011;19049;52.524;11.468;2022-08-04T21:54:48;1.77;;;1.60;;
32639;SDS011;19049;52.524;11.468;2022-08-04T21:57:14;2.13;;;1.80;;
32639;SDS011;19049;52.524;11.468;2022-08-04T21:59:39;3.00;;;2.17;;
32639;SDS011;19049;52.524;11.468;2022-08-04T22:02:05;2.90;;;2.33;;
32639;SDS011;19049;52.524;11.468;2022-08-04T22:04:34;3.70;;;2.30;;
32639;SDS011;19049;52.524;11.468;2022-08-04T22:06:59;4.00;;;2.53;;
32639;SDS011;19049;52.524;11.468;2022-08-04T22:09:32;2.90;;;2.37;;
32639;SDS011;19049;52.524;11.468;2022-08-04T22:11:58;3.13;;;2.47;;
32639;SDS011;19049;52.524;11.468;2022-08-04T22:14:24;3.10;;;2.30;;
32639;SDS011;19049;52.524;11.468;2022-08-04T22:16:49;2.80;;;2.43;;
32639;SDS011;19049;52.524;11.468;2022-08-04T22:19:15;2.80;;;2.43;;
32639;SDS011;19049;52.524;11.468;2022-08-04T22:21:41;3.10;;;2.47;;
32639;SDS011;19049;52.524;11.468;2022-08-04T22:24:07;2.50;;;2.27;;
32639;SDS011;19049;52.524;11.468;2022-08-04T22:26:35;3.13;;;2.60;;
32639;SDS011;19049;52.524;11.468;2022-08-04T22:29:00;2.80;;;1.87;;
32639;SDS011;19049;52.524;11.468;2022-08-04T22:31:29;3.77;;;1.87;;
32639;SDS011;19049;52.524;11.468;2022-08-04T22:33:55;2.77;;;1.97;;
32639;SDS011;19049;52.524;11.468;2022-08-04T22:36:23;3.40;;;2.20;;
32639;SDS011;19049;52.524;11.468;2022-08-04T22:38:49;2.50;;;1.97;;
32639;SDS011;19049;52.524;11.468;2022-08-04T22:41:16;2.30;;;1.73;;
32639;SDS011;19049;52.524;11.468;2022-08-04T22:43:48;2.07;;;1.87;;
32639;SDS011;19049;52.524;11.468;2022-08-04T22:46:24;2.57;;;1.80;;
32639;SDS011;19049;52.524;11.468;2022-08-04T22:48:52;3.50;;;2.10;;
32639;SDS011;19049;52.524;11.468;2022-08-04T22:51:21;3.37;;;2.00;;
32639;SDS011;19049;52.524;11.468;2022-08-04T22:53:48;1.93;;;1.70;;
32639;SDS011;19049;52.524;11.468;2022-08-04T22:56:14;4.03;;;2.03;;
32639;SDS011;19049;52.524;11.468;2022-08-04T22:58:42;3.23;;;1.90;;
32639;SDS011;19049;52.524;11.468;2022-08-04T23:01:11;4.73;;;1.73;;
32639;SDS011;19049;52.524;11.468;2022-08-04T23:03:41;2.70;;;1.67;;
32639;SDS011;19049;52.524;11.468;2022-08-04T23:06:11;2.80;;;2.17;;
32639;SDS011;19049;52.524;11.468;2022-08-04T23:11:32;3.73;;;2.10;;